sensor_id;sensor_type;location;lat;lon;timestamp;P1;durP1;ratioP1;P2;durP2;ratioP2
22531;SDS011;11432;46.924;7.114;2023-05-14T00:00:47;3.92;;;3.15;;
22531;SDS011;11432;46.924;7.114;2023-05-14T00:03:12;5.40;;;3.33;;
22531;SDS011;11432;46.924;7.114;2023-05-14T00:05:38;5.07;;;3.47;;
22531;SDS011;11432;46.924;7.114;2023-05-14T00:08:04;5.50;;;3.63;;
22531;SDS011;11432;46.924;7.114;2023-05-14T00:10:30;4.50;;;3.03;;
22531;SDS011;11432;46.924;7.114;2023-05-14T00:12:55;4.97;;;3.50;;
22531;SDS011;11432;46.924;7.114;2023-05-14T00:15:21;3.97;;;3.05;;
22531;SDS011;11432;46.924;7.114;2023-05-14T00:17:47;4.38;;;3.20;;
22531;SDS011;11432;46.924;7.114;2023-05-14T00:20:12;5.60;;;3.30;;
22531;SDS011;11432;46.924;7.114;2023-05-14T00:22:38;5.78;;;3.53;;
22531;SDS011;11432;46.924;7.114;2023-05-14T00:25:04;4.95;;;3.20;;
22531;SDS011;11432;46.924;7.114;2023-05-14T00:27:31;6.90;;;2.95;;
22531;SDS011;11432;46.924;7.114;2023-05-14T00:29:58;4.07;;;3.13;;
22531;SDS011;11432;46.924;7.114;2023-05-14T00:32:23;5.63;;;3.65;;
22531;SDS011;11432;46.924;7.114;2023-05-14T00:34:49;4.55;;;3.58;;
22531;SDS011;11432;46.924;7.114;2023-05-14T00:37:14;5.10;;;3.72;;
22531;SDS011;11432;46.924;7.114;2023-05-14T00:39:40;4.78;;;3.60;;
22531;SDS011;11432;46.924;7.114;2023-05-14T00:42:06;5.05;;;3.40;;
22531;SDS011;11432;46.924;7.114;2023-05-14T00:44:32;5.70;;;3.80;;
22531;SDS011;11432;46.924;7.114;2023-05-14T00:46:57;4.50;;;3.47;;
22531;SDS011;11432;46.924;7.114;2023-05-14T00:49:24;7.05;;;3.97;;
22531;SDS011;11432;46.924;7.114;2023-05-14T00:51:50;5.35;;;4.13;;
22531;SDS011;11432;46.924;7.114;2023-05-14T00:54:17;6.20;;;4.07;;
22531;SDS011;11432;46.924;7.114;2023-05-14T00:56:44;5.53;;;4.25;;
22531;SDS011;11432;46.924;7.114;2023-05-14T00:59:10;7.25;;;4.47;;
22531;SDS011;11432;46.924;7.114;2023-05-14T01:01:37;6.57;;;3.80;;
22531;SDS011;11432;46.924;7.114;2023-05-14T01:04:02;5.88;;;3.75;;
22531;SDS011;11432;46.924;7.114;2023-05-14T01:06:39;4.93;;;3.67;;
22531;SDS011;11432;46.924;7.114;2023-05-14T01:15:20;5.20;;;4.07;;
22531;SDS011;11432;46.924;7.114;2023-05-14T01:17:58;7.35;;;4.18;;
22531;SDS011;11432;46.924;7.114;2023-05-14T01:20:32;5.28;;;4.20;;
22531;SDS011;11432;46.924;7.114;2023-05-14T01:22:58;5.40;;;4.13;;
22531;SDS011;11432;46.924;7.114;2023-05-14T01:25:23;5.88;;;4.28;;
22531;SDS011;11432;46.924;7.114;2023-05-14T01:28:11;6.82;;;4.47;;
22531;SDS011;11432;46.924;7.114;2023-05-14T01:30:56;5.93;;;4.47;;
22531;SDS011;11432;46.924;7.114;2023-05-14T01:33:26;9.82;;;4.30;;
22531;SDS011;11432;46.924;7.114;2023-05-14T01:35:54;7.32;;;4.57;;
22531;SDS011;11432;46.924;7.114;2023-05-14T01:38:20;5.57;;;4.32;;
22531;SDS011;11432;46.924;7.114;2023-05-14T01:40:47;8.57;;;4.60;;
22531;SDS011;11432;46.924;7.114;2023-05-14T01:43:14;7.82;;;4.82;;
22531;SDS011;11432;46.924;7.114;2023-05-14T01:45:41;5.30;;;3.90;;
22531;SDS011;11432;46.924;7.114;2023-05-14T01:48:07;6.05;;;3.95;;
22531;SDS011;11432;46.924;7.114;2023-05-14T01:50:33;6.00;;;4.32;;
22531;SDS011;11432;46.924;7.114;2023-05-14T01:52:58;5.20;;;3.60;;
22531;SDS011;11432;46.924;7.114;2023-05-14T01:55:24;4.45;;;3.50;;
22531;SDS011;11432;46.924;7.114;2023-05-14T01:57:50;3.67;;;3.20;;
22531;SDS011;11432;46.924;7.114;2023-05-14T02:00:16;5.90;;;3.35;;
22531;SDS011;11432;46.924;7.114;2023-05-14T02:02:42;5.55;;;3.50;;
22531;SDS011;11432;46.924;7.114;2023-05-14T02:05:08;3.40;;;2.67;;
22531;SDS011;11432;46.924;7.114;2023-05-14T02:07:35;4.57;;;3.40;;
22531;SDS011;11432;46.924;7.114;2023-05-14T02:10:00;4.00;;;3.28;;
22531;SDS011;11432;46.924;7.114;2023-05-14T02:12:26;6.25;;;3.10;;
22531;SDS011;11432;46.924;7.114;2023-05-14T02:14:52;4.88;;;3.50;;
22531;SDS011;11432;46.924;7.114;2023-05-14T02:17:18;3.97;;;3.13;;
22531;SDS011;11432;46.924;7.114;2023-05-14T02:19:44;4.28;;;3.30;;
22531;SDS011;11432;46.924;7.114;2023-05-14T02:22:10;5.20;;;3.53;;
22531;SDS011;11432;46.924;7.114;2023-05-14T02:24:36;7.28;;;3.70;;
22531;SDS011;11432;46.924;7.114;2023-05-14T02:27:01;5.55;;;3.28;;
22531;SDS011;11432;46.924;7.114;2023-05-14T02:29:27;5.90;;;3.80;;
22531;SDS011;11432;46.924;7.114;2023-05-14T02:31:52;5.55;;;3.50;;
22531;SDS011;11432;46.924;7.114;2023-05-14T02:34:18;5.03;;;3.92;;
22531;SDS011;11432;46.924;7.114;2023-05-14T02:36:44;4.45;;;3.10;;
22531;SDS011;11432;46.924;7.114;2023-05-14T02:39:09;3.35;;;2.80;;
22531;SDS011;11432;46.924;7.114;2023-05-14T02:41:35;3.80;;;2.92;;
22531;SDS011;11432;46.924;7.114;2023-05-14T02:44:00;3.70;;;2.83;;
22531;SDS011;11432;46.924;7.114;2023-05-14T02:46:26;4.00;;;3.05;;
22531;SDS011;11432;46.924;7.114;2023-05-14T02:48:51;4.53;;;2.83;;
22531;SDS011;11432;46.924;7.114;2023-05-14T02:51:18;4.53;;;3.30;;
22531;SDS011;11432;46.924;7.114;2023-05-14T02:53:45;5.00;;;3.15;;
22531;SDS011;11432;46.924;7.114;2023-05-14T02:56:10;4.90;;;3.30;;
22531;SDS011;11432;46.924;7.114;2023-05-14T02:58:36;5.60;;;3.30;;
22531;SDS011;11432;46.924;7.114;2023-05-14T03:01:02;6.13;;;4.03;;
22531;SDS011;11432;46.924;7.114;2023-05-14T03:03:28;4.68;;;3.83;;
22531;SDS011;11432;46.924;7.114;2023-05-14T03:05:54;7.43;;;4.03;;
22531;SDS011;11432;46.924;7.114;2023-05-14T03:08:19;6.55;;;4.10;;
22531;SDS011;11432;46.924;7.114;2023-05-14T03:10:45;6.57;;;4.28;;
22531;SDS011;11432;46.924;7.114;2023-05-14T03:13:11;7.05;;;4.82;;
22531;SDS011;11432;46.924;7.114;2023-05-14T03:15:36;7.30;;;5.15;;
22531;SDS011;11432;46.924;7.114;2023-05-14T03:18:02;8.02;;;5.20;;
22531;SDS011;11432;46.924;7.114;2023-05-14T03:20:27;9.32;;;5.30;;
22531;SDS011;11432;46.924;7.114;2023-05-14T03:22:53;6.18;;;5.10;;
22531;SDS011;11432;46.924;7.114;2023-05-14T03:25:20;6.70;;;5.55;;
22531;SDS011;11432;46.924;7.114;2023-05-14T03:27:45;7.88;;;5.43;;
22531;SDS011;11432;46.924;7.114;2023-05-14T03:30:11;8.98;;;5.72;;
22531;SDS011;11432;46.924;7.114;2023-05-14T03:32:37;9.13;;;6.05;;
22531;SDS011;11432;46.924;7.114;2023-05-14T03:35:02;8.45;;;5.57;;
22531;SDS011;11432;46.924;7.114;2023-05-14T03:37:28;10.82;;;5.07;;
22531;SDS011;11432;46.924;7.114;2023-05-14T03:39:54;6.70;;;5.18;;
22531;SDS011;11432;46.924;7.114;2023-05-14T03:42:19;7.78;;;5.15;;
22531;SDS011;11432;46.924;7.114;2023-05-14T03:44:45;6.93;;;5.28;;
22531;SDS011;11432;46.924;7.114;2023-05-14T03:47:11;6.82;;;5.05;;
22531;SDS011;11432;46.924;7.114;2023-05-14T03:49:36;6.55;;;5.10;;
22531;SDS011;11432;46.924;7.114;2023-05-14T03:52:02;7.95;;;4.95;;
22531;SDS011;11432;46.924;7.114;2023-05-14T03:54:28;7.57;;;5.13;;
22531;SDS011;11432;46.924;7.114;2023-05-14T03:56:53;9.75;;;4.78;;
22531;SDS011;11432;46.924;7.114;2023-05-14T03:59:19;6.18;;;4.93;;
22531;SDS011;11432;46.924;7.114;2023-05-14T04:01:44;6.95;;;5.05;;
22531;SDS011;11432;46.924;7.114;2023-05-14T04:04:10;8.88;;;5.03;;
22531;SDS011;11432;46.924;7.114;2023-05-14T04:06:35;6.95;;;4.43;;
22531;SDS011;11432;46.924;7.114;2023-05-14T04:09:01;6.57;;;4.80;;
22531;SDS011;11432;46.924;7.114;2023-05-14T04:11:27;6.35;;;5.07;;
22531;SDS011;11432;46.924;7.114;2023-05-14T04:13:53;6.95;;;5.53;;
22531;SDS011;11432;46.924;7.114;2023-05-14T04:16:19;7.20;;;5.65;;
22531;SDS011;11432;46.924;7.114;2023-05-14T04:18:44;10.48;;;6.10;;
22531;SDS011;11432;46.924;7.114;2023-05-14T04:21:10;9.48;;;6.80;;
22531;SDS011;11432;46.924;7.114;2023-05-14T04:23:36;8.63;;;6.10;;
22531;SDS011;11432;46.924;7.114;2023-05-14T04:26:01;6.97;;;5.68;;
22531;SDS011;11432;46.924;7.114;2023-05-14T04:28:28;8.05;;;6.38;;
22531;SDS011;11432;46.924;7.114;2023-05-14T04:30:54;8.65;;;6.50;;
22531;SDS011;11432;46.924;7.114;2023-05-14T04:33:19;8.43;;;6.80;;
22531;SDS011;11432;46.924;7.114;2023-05-14T04:35:45;13.30;;;6.72;;
22531;SDS011;11432;46.924;7.114;2023-05-14T04:38:11;9.85;;;6.95;;
22531;SDS011;11432;46.924;7.114;2023-05-14T04:40:38;8.05;;;6.40;;
22531;SDS011;11432;46.924;7.114;2023-05-14T04:43:05;11.25;;;6.80;;
22531;SDS011;11432;46.924;7.114;2023-05-14T04:45:31;9.38;;;6.65;;
22531;SDS011;11432;46.924;7.114;2023-05-14T04:47:57;9.13;;;6.57;;
22531;SDS011;11432;46.924;7.114;2023-05-14T04:50:23;9.18;;;6.53;;
22531;SDS011;11432;46.924;7.114;2023-05-14T04:52:48;7.60;;;6.68;;
22531;SDS011;11432;46.924;7.114;2023-05-14T04:55:14;8.45;;;6.22;;
22531;SDS011;11432;46.924;7.114;2023-05-14T04:57:40;9.65;;;6.30;;
22531;SDS011;11432;46.924;7.114;2023-05-14T05:00:05;7.88;;;6.35;;
22531;SDS011;11432;46.924;7.114;2023-05-14T05:02:33;7.65;;;6.10;;
22531;SDS011;11432;46.924;7.114;2023-05-14T05:04:59;6.50;;;5.50;;
22531;SDS011;11432;46.924;7.114;2023-05-14T05:07:24;8.88;;;6.45;;
22531;SDS011;11432;46.924;7.114;2023-05-14T05:09:50;10.27;;;6.25;;
22531;SDS011;11432;46.924;7.114;2023-05-14T05:12:15;7.57;;;5.97;;
22531;SDS011;11432;46.924;7.114;2023-05-14T05:14:41;7.80;;;6.30;;
22531;SDS011;11432;46.924;7.114;2023-05-14T05:17:07;7.35;;;6.00;;
22531;SDS011;11432;46.924;7.114;2023-05-14T05:19:32;10.48;;;6.25;;
22531;SDS011;11432;46.924;7.114;2023-05-14T05:21:58;7.88;;;5.95;;
22531;SDS011;11432;46.924;7.114;2023-05-14T05:24:23;7.22;;;6.00;;
22531;SDS011;11432;46.924;7.114;2023-05-14T05:26:49;9.70;;;5.95;;
22531;SDS011;11432;46.924;7.114;2023-05-14T05:29:15;7.78;;;5.88;;
22531;SDS011;11432;46.924;7.114;2023-05-14T05:31:41;9.98;;;6.05;;
22531;SDS011;11432;46.924;7.114;2023-05-14T05:34:07;9.13;;;5.50;;
22531;SDS011;11432;46.924;7.114;2023-05-14T05:36:33;9.45;;;5.35;;
22531;SDS011;11432;46.924;7.114;2023-05-14T05:38:58;7.47;;;5.55;;
22531;SDS011;11432;46.924;7.114;2023-05-14T05:41:24;6.93;;;5.65;;
22531;SDS011;11432;46.924;7.114;2023-05-14T05:43:50;6.15;;;5.10;;
22531;SDS011;11432;46.924;7.114;2023-05-14T05:46:16;7.97;;;4.85;;
22531;SDS011;11432;46.924;7.114;2023-05-14T05:48:41;7.50;;;5.40;;
22531;SDS011;11432;46.924;7.114;2023-05-14T05:51:07;7.78;;;5.53;;
22531;SDS011;11432;46.924;7.114;2023-05-14T05:53:32;8.90;;;5.43;;
22531;SDS011;11432;46.924;7.114;2023-05-14T05:55:59;6.85;;;5.72;;
22531;SDS011;11432;46.924;7.114;2023-05-14T05:58:25;7.93;;;5.65;;
22531;SDS011;11432;46.924;7.114;2023-05-14T06:00:50;7.20;;;5.63;;
22531;SDS011;11432;46.924;7.114;2023-05-14T06:03:17;7.57;;;5.68;;
22531;SDS011;11432;46.924;7.114;2023-05-14T06:05:43;6.25;;;4.75;;
22531;SDS011;11432;46.924;7.114;2023-05-14T06:08:08;6.55;;;5.22;;
22531;SDS011;11432;46.924;7.114;2023-05-14T06:10:34;7.13;;;5.05;;
22531;SDS011;11432;46.924;7.114;2023-05-14T06:13:00;6.85;;;4.78;;
22531;SDS011;11432;46.924;7.114;2023-05-14T06:15:26;5.97;;;4.07;;
22531;SDS011;11432;46.924;7.114;2023-05-14T06:17:51;5.97;;;4.45;;
22531;SDS011;11432;46.924;7.114;2023-05-14T06:20:17;5.53;;;4.38;;
22531;SDS011;11432;46.924;7.114;2023-05-14T06:22:43;5.72;;;3.97;;
22531;SDS011;11432;46.924;7.114;2023-05-14T06:25:09;5.20;;;3.85;;
22531;SDS011;11432;46.924;7.114;2023-05-14T06:27:35;5.45;;;3.63;;
22531;SDS011;11432;46.924;7.114;2023-05-14T06:30:00;5.65;;;3.85;;
22531;SDS011;11432;46.924;7.114;2023-05-14T06:32:26;5.70;;;4.47;;
22531;SDS011;11432;46.924;7.114;2023-05-14T06:34:51;6.15;;;4.68;;
22531;SDS011;11432;46.924;7.114;2023-05-14T06:37:17;5.78;;;3.97;;
22531;SDS011;11432;46.924;7.114;2023-05-14T06:39:43;6.43;;;4.05;;
22531;SDS011;11432;46.924;7.114;2023-05-14T06:42:13;5.43;;;4.03;;
22531;SDS011;11432;46.924;7.114;2023-05-14T06:44:40;5.57;;;4.47;;
22531;SDS011;11432;46.924;7.114;2023-05-14T06:47:05;6.15;;;4.35;;
22531;SDS011;11432;46.924;7.114;2023-05-14T06:49:32;5.22;;;4.45;;
22531;SDS011;11432;46.924;7.114;2023-05-14T06:51:58;4.70;;;3.83;;
22531;SDS011;11432;46.924;7.114;2023-05-14T06:54:24;5.00;;;4.00;;
22531;SDS011;11432;46.924;7.114;2023-05-14T06:56:50;5.00;;;4.20;;
22531;SDS011;11432;46.924;7.114;2023-05-14T06:59:15;5.68;;;4.15;;
22531;SDS011;11432;46.924;7.114;2023-05-14T07:01:41;5.00;;;3.92;;
22531;SDS011;11432;46.924;7.114;2023-05-14T07:04:07;4.75;;;3.40;;
22531;SDS011;11432;46.924;7.114;2023-05-14T07:06:32;5.45;;;3.70;;
22531;SDS011;11432;46.924;7.114;2023-05-14T07:08:59;4.68;;;3.60;;
22531;SDS011;11432;46.924;7.114;2023-05-14T07:11:25;4.18;;;3.20;;
22531;SDS011;11432;46.924;7.114;2023-05-14T07:13:51;4.97;;;3.70;;
22531;SDS011;11432;46.924;7.114;2023-05-14T07:16:16;4.13;;;3.50;;
22531;SDS011;11432;46.924;7.114;2023-05-14T07:18:43;5.90;;;3.50;;
22531;SDS011;11432;46.924;7.114;2023-05-14T07:21:09;6.57;;;3.58;;
22531;SDS011;11432;46.924;7.114;2023-05-14T07:23:35;5.03;;;4.10;;
22531;SDS011;11432;46.924;7.114;2023-05-14T07:26:02;4.93;;;3.38;;
22531;SDS011;11432;46.924;7.114;2023-05-14T07:28:29;4.75;;;3.17;;
22531;SDS011;11432;46.924;7.114;2023-05-14T07:30:54;4.18;;;3.00;;
22531;SDS011;11432;46.924;7.114;2023-05-14T07:33:20;7.57;;;3.40;;
22531;SDS011;11432;46.924;7.114;2023-05-14T07:35:46;5.70;;;3.38;;
22531;SDS011;11432;46.924;7.114;2023-05-14T07:38:11;6.82;;;3.45;;
22531;SDS011;11432;46.924;7.114;2023-05-14T07:40:37;5.95;;;3.30;;
22531;SDS011;11432;46.924;7.114;2023-05-14T07:43:03;5.00;;;3.25;;
22531;SDS011;11432;46.924;7.114;2023-05-14T07:45:28;3.55;;;3.10;;
22531;SDS011;11432;46.924;7.114;2023-05-14T07:47:54;4.82;;;3.38;;
22531;SDS011;11432;46.924;7.114;2023-05-14T07:50:20;5.25;;;3.03;;
22531;SDS011;11432;46.924;7.114;2023-05-14T07:52:46;4.32;;;3.47;;
22531;SDS011;11432;46.924;7.114;2023-05-14T07:55:11;5.80;;;4.10;;
22531;SDS011;11432;46.924;7.114;2023-05-14T07:57:37;5.15;;;3.90;;
22531;SDS011;11432;46.924;7.114;2023-05-14T08:00:03;6.68;;;3.63;;
22531;SDS011;11432;46.924;7.114;2023-05-14T08:02:32;3.45;;;1.98;;
22531;SDS011;11432;46.924;7.114;2023-05-14T08:04:57;3.90;;;2.80;;
22531;SDS011;11432;46.924;7.114;2023-05-14T08:07:23;5.07;;;2.75;;
22531;SDS011;11432;46.924;7.114;2023-05-14T08:09:49;4.72;;;2.67;;
22531;SDS011;11432;46.924;7.114;2023-05-14T08:12:15;3.00;;;2.33;;
22531;SDS011;11432;46.924;7.114;2023-05-14T08:14:40;3.15;;;2.30;;
22531;SDS011;11432;46.924;7.114;2023-05-14T08:17:06;3.47;;;2.58;;
22531;SDS011;11432;46.924;7.114;2023-05-14T08:19:31;4.05;;;2.78;;
22531;SDS011;11432;46.924;7.114;2023-05-14T08:21:57;4.20;;;2.50;;
22531;SDS011;11432;46.924;7.114;2023-05-14T08:24:23;2.78;;;2.25;;
22531;SDS011;11432;46.924;7.114;2023-05-14T08:26:48;5.10;;;3.25;;
22531;SDS011;11432;46.924;7.114;2023-05-14T08:29:14;4.85;;;2.90;;
22531;SDS011;11432;46.924;7.114;2023-05-14T08:31:39;3.45;;;2.40;;
22531;SDS011;11432;46.924;7.114;2023-05-14T08:34:05;3.75;;;2.78;;
22531;SDS011;11432;46.924;7.114;2023-05-14T08:36:31;2.90;;;2.15;;
22531;SDS011;11432;46.924;7.114;2023-05-14T08:38:56;4.28;;;2.70;;
22531;SDS011;11432;46.924;7.114;2023-05-14T08:41:22;2.42;;;2.08;;
22531;SDS011;11432;46.924;7.114;2023-05-14T08:46:28;2.88;;;2.30;;
22531;SDS011;11432;46.924;7.114;2023-05-14T08:48:55;2.15;;;1.65;;
22531;SDS011;11432;46.924;7.114;2023-05-14T08:51:32;2.00;;;1.20;;
22531;SDS011;11432;46.924;7.114;2023-05-14T08:53:59;1.90;;;1.50;;
22531;SDS011;11432;46.924;7.114;2023-05-14T08:56:26;1.80;;;1.35;;
22531;SDS011;11432;46.924;7.114;2023-05-14T08:58:53;1.40;;;1.20;;
22531;SDS011;11432;46.924;7.114;2023-05-14T09:01:19;1.83;;;1.30;;
22531;SDS011;11432;46.924;7.114;2023-05-14T09:03:45;2.17;;;1.15;;
22531;SDS011;11432;46.924;7.114;2023-05-14T09:06:11;2.92;;;1.20;;
22531;SDS011;11432;46.924;7.114;2023-05-14T09:08:37;1.75;;;1.20;;
22531;SDS011;11432;46.924;7.114;2023-05-14T09:11:03;1.70;;;1.20;;
22531;SDS011;11432;46.924;7.114;2023-05-14T09:13:29;1.80;;;1.27;;
22531;SDS011;11432;46.924;7.114;2023-05-14T09:15:55;1.33;;;1.10;;
22531;SDS011;11432;46.924;7.114;2023-05-14T09:18:21;1.50;;;1.00;;
22531;SDS011;11432;46.924;7.114;2023-05-14T09:20:47;2.15;;;1.10;;
22531;SDS011;11432;46.924;7.114;2023-05-14T09:23:13;2.42;;;1.00;;
22531;SDS011;11432;46.924;7.114;2023-05-14T09:25:38;1.65;;;1.20;;
22531;SDS011;11432;46.924;7.114;2023-05-14T09:28:05;1.70;;;1.30;;
22531;SDS011;11432;46.924;7.114;2023-05-14T09:30:32;1.40;;;1.00;;
22531;SDS011;11432;46.924;7.114;2023-05-14T09:32:59;1.35;;;1.10;;
22531;SDS011;11432;46.924;7.114;2023-05-14T09:35:24;1.77;;;1.23;;
22531;SDS011;11432;46.924;7.114;2023-05-14T09:37:51;1.85;;;1.27;;
22531;SDS011;11432;46.924;7.114;2023-05-14T09:40:18;1.20;;;1.08;;
22531;SDS011;11432;46.924;7.114;2023-05-14T09:42:45;1.90;;;1.35;;
22531;SDS011;11432;46.924;7.114;2023-05-14T09:45:13;1.38;;;0.90;;
22531;SDS011;11432;46.924;7.114;2023-05-14T09:47:38;1.40;;;1.00;;
22531;SDS011;11432;46.924;7.114;2023-05-14T09:50:04;2.60;;;1.40;;
22531;SDS011;11432;46.924;7.114;2023-05-14T09:52:31;1.77;;;1.00;;
22531;SDS011;11432;46.924;7.114;2023-05-14T09:54:57;1.83;;;0.90;;
22531;SDS011;11432;46.924;7.114;2023-05-14T09:57:23;1.08;;;0.77;;
22531;SDS011;11432;46.924;7.114;2023-05-14T09:59:48;1.48;;;0.88;;
22531;SDS011;11432;46.924;7.114;2023-05-14T10:02:15;1.05;;;0.80;;
22531;SDS011;11432;46.924;7.114;2023-05-14T10:04:49;1.35;;;1.08;;
22531;SDS011;11432;46.924;7.114;2023-05-14T10:07:26;1.45;;;0.90;;
22531;SDS011;11432;46.924;7.114;2023-05-14T10:09:58;1.83;;;1.10;;
22531;SDS011;11432;46.924;7.114;2023-05-14T10:12:27;1.05;;;0.90;;
22531;SDS011;11432;46.924;7.114;2023-05-14T10:14:57;1.23;;;0.95;;
22531;SDS011;11432;46.924;7.114;2023-05-14T10:17:29;1.25;;;0.77;;
22531;SDS011;11432;46.924;7.114;2023-05-14T10:19:58;1.02;;;0.85;;
22531;SDS011;11432;46.924;7.114;2023-05-14T10:22:28;1.27;;;1.17;;
22531;SDS011;11432;46.924;7.114;2023-05-14T10:24:57;1.17;;;0.90;;
22531;SDS011;11432;46.924;7.114;2023-05-14T10:27:24;1.05;;;0.85;;
22531;SDS011;11432;46.924;7.114;2023-05-14T10:29:51;1.15;;;1.02;;
22531;SDS011;11432;46.924;7.114;2023-05-14T10:32:18;1.42;;;1.13;;
22531;SDS011;11432;46.924;7.114;2023-05-14T10:34:46;1.25;;;0.80;;
22531;SDS011;11432;46.924;7.114;2023-05-14T10:37:16;1.70;;;0.93;;
22531;SDS011;11432;46.924;7.114;2023-05-14T10:40:20;5.47;;;1.02;;
22531;SDS011;11432;46.924;7.114;2023-05-14T10:42:38;1.33;;;0.93;;
22531;SDS011;11432;46.924;7.114;2023-05-14T10:45:07;1.02;;;0.85;;
22531;SDS011;11432;46.924;7.114;2023-05-14T10:47:37;0.95;;;0.80;;
22531;SDS011;11432;46.924;7.114;2023-05-14T10:50:05;0.93;;;0.80;;
22531;SDS011;11432;46.924;7.114;2023-05-14T10:52:32;1.33;;;0.90;;
22531;SDS011;11432;46.924;7.114;2023-05-14T10:55:02;1.05;;;0.90;;
22531;SDS011;11432;46.924;7.114;2023-05-14T10:57:33;2.58;;;0.90;;
22531;SDS011;11432;46.924;7.114;2023-05-14T11:00:01;2.30;;;0.98;;
22531;SDS011;11432;46.924;7.114;2023-05-14T11:07:34;1.35;;;0.90;;
22531;SDS011;11432;46.924;7.114;2023-05-14T11:10:04;0.98;;;0.82;;
22531;SDS011;11432;46.924;7.114;2023-05-14T11:12:39;0.90;;;0.73;;
22531;SDS011;11432;46.924;7.114;2023-05-14T11:15:07;1.73;;;1.00;;
22531;SDS011;11432;46.924;7.114;2023-05-14T11:17:44;2.30;;;0.73;;
22531;SDS011;11432;46.924;7.114;2023-05-14T11:20:11;1.80;;;0.95;;
22531;SDS011;11432;46.924;7.114;2023-05-14T11:22:37;1.52;;;1.30;;
22531;SDS011;11432;46.924;7.114;2023-05-14T11:25:04;2.53;;;1.40;;
22531;SDS011;11432;46.924;7.114;2023-05-14T11:27:32;1.42;;;1.17;;
22531;SDS011;11432;46.924;7.114;2023-05-14T11:29:59;2.27;;;1.03;;
22531;SDS011;11432;46.924;7.114;2023-05-14T11:32:25;2.55;;;1.20;;
22531;SDS011;11432;46.924;7.114;2023-05-14T11:34:50;0.80;;;0.80;;
22531;SDS011;11432;46.924;7.114;2023-05-14T11:37:16;1.63;;;0.90;;
22531;SDS011;11432;46.924;7.114;2023-05-14T11:39:49;1.27;;;0.93;;
22531;SDS011;11432;46.924;7.114;2023-05-14T11:42:18;1.15;;;0.93;;
22531;SDS011;11432;46.924;7.114;2023-05-14T11:44:48;2.42;;;0.80;;
22531;SDS011;11432;46.924;7.114;2023-05-14T11:47:16;2.92;;;0.90;;
22531;SDS011;11432;46.924;7.114;2023-05-14T11:49:42;1.42;;;1.00;;
22531;SDS011;11432;46.924;7.114;2023-05-14T11:52:08;3.95;;;1.20;;
22531;SDS011;11432;46.924;7.114;2023-05-14T11:54:36;4.30;;;0.95;;
22531;SDS011;11432;46.924;7.114;2023-05-14T11:57:06;2.92;;;1.08;;
22531;SDS011;11432;46.924;7.114;2023-05-14T11:59:35;1.08;;;0.95;;
22531;SDS011;11432;46.924;7.114;2023-05-14T12:02:02;2.33;;;1.00;;
22531;SDS011;11432;46.924;7.114;2023-05-14T12:04:29;4.00;;;1.30;;
22531;SDS011;11432;46.924;7.114;2023-05-14T12:06:56;1.52;;;1.10;;
22531;SDS011;11432;46.924;7.114;2023-05-14T12:09:23;2.05;;;1.38;;
22531;SDS011;11432;46.924;7.114;2023-05-14T12:11:49;1.73;;;1.13;;
22531;SDS011;11432;46.924;7.114;2023-05-14T12:14:16;1.95;;;1.40;;
22531;SDS011;11432;46.924;7.114;2023-05-14T12:16:44;1.33;;;1.10;;
22531;SDS011;11432;46.924;7.114;2023-05-14T12:19:10;1.42;;;1.13;;
22531;SDS011;11432;46.924;7.114;2023-05-14T12:21:39;1.52;;;1.20;;
22531;SDS011;11432;46.924;7.114;2023-05-14T12:24:16;1.38;;;1.20;;
22531;SDS011;11432;46.924;7.114;2023-05-14T12:26:44;2.05;;;1.38;;
22531;SDS011;11432;46.924;7.114;2023-05-14T12:29:11;1.60;;;1.38;;
22531;SDS011;11432;46.924;7.114;2023-05-14T12:31:43;1.75;;;1.08;;
22531;SDS011;11432;46.924;7.114;2023-05-14T12:34:14;1.13;;;0.80;;
22531;SDS011;11432;46.924;7.114;2023-05-14T12:36:40;1.17;;;1.05;;
22531;SDS011;11432;46.924;7.114;2023-05-14T12:39:06;1.20;;;0.88;;
22531;SDS011;11432;46.924;7.114;2023-05-14T12:41:32;1.70;;;1.13;;
22531;SDS011;11432;46.924;7.114;2023-05-14T12:43:58;1.02;;;0.80;;
22531;SDS011;11432;46.924;7.114;2023-05-14T12:46:24;1.58;;;0.82;;
22531;SDS011;11432;46.924;7.114;2023-05-14T12:48:51;1.85;;;1.10;;
22531;SDS011;11432;46.924;7.114;2023-05-14T12:51:17;1.08;;;0.85;;
22531;SDS011;11432;46.924;7.114;2023-05-14T12:53:43;1.23;;;1.00;;
22531;SDS011;11432;46.924;7.114;2023-05-14T12:56:08;1.20;;;0.82;;
22531;SDS011;11432;46.924;7.114;2023-05-14T12:58:34;1.83;;;1.10;;
22531;SDS011;11432;46.924;7.114;2023-05-14T13:01:00;1.40;;;0.80;;
22531;SDS011;11432;46.924;7.114;2023-05-14T13:03:26;0.90;;;0.80;;
22531;SDS011;11432;46.924;7.114;2023-05-14T13:05:52;1.10;;;0.90;;
22531;SDS011;11432;46.924;7.114;2023-05-14T13:08:20;1.73;;;1.10;;
22531;SDS011;11432;46.924;7.114;2023-05-14T13:10:49;1.77;;;1.00;;
22531;SDS011;11432;46.924;7.114;2023-05-14T13:13:15;1.30;;;1.15;;
22531;SDS011;11432;46.924;7.114;2023-05-14T13:15:41;1.30;;;1.00;;
22531;SDS011;11432;46.924;7.114;2023-05-14T13:18:06;2.88;;;1.30;;
22531;SDS011;11432;46.924;7.114;2023-05-14T13:20:32;1.20;;;0.98;;
22531;SDS011;11432;46.924;7.114;2023-05-14T13:22:58;1.30;;;1.08;;
22531;SDS011;11432;46.924;7.114;2023-05-14T13:25:24;0.95;;;0.80;;
22531;SDS011;11432;46.924;7.114;2023-05-14T13:27:51;1.67;;;1.08;;
22531;SDS011;11432;46.924;7.114;2023-05-14T13:30:17;1.65;;;1.00;;
22531;SDS011;11432;46.924;7.114;2023-05-14T13:32:43;2.30;;;1.08;;
22531;SDS011;11432;46.924;7.114;2023-05-14T13:35:09;2.75;;;0.98;;
22531;SDS011;11432;46.924;7.114;2023-05-14T13:37:35;1.38;;;1.00;;
22531;SDS011;11432;46.924;7.114;2023-05-14T13:40:00;1.33;;;0.88;;
22531;SDS011;11432;46.924;7.114;2023-05-14T13:42:28;1.35;;;1.02;;
22531;SDS011;11432;46.924;7.114;2023-05-14T13:44:54;2.45;;;0.98;;
22531;SDS011;11432;46.924;7.114;2023-05-14T13:47:20;0.80;;;0.70;;
22531;SDS011;11432;46.924;7.114;2023-05-14T13:49:46;0.98;;;0.80;;
22531;SDS011;11432;46.924;7.114;2023-05-14T13:52:11;1.17;;;1.00;;
22531;SDS011;11432;46.924;7.114;2023-05-14T13:54:37;2.08;;;0.80;;
22531;SDS011;11432;46.924;7.114;2023-05-14T13:57:03;1.73;;;1.00;;
22531;SDS011;11432;46.924;7.114;2023-05-14T13:59:28;0.98;;;0.80;;
22531;SDS011;11432;46.924;7.114;2023-05-14T14:01:54;0.98;;;0.88;;
22531;SDS011;11432;46.924;7.114;2023-05-14T14:04:20;0.77;;;0.73;;
22531;SDS011;11432;46.924;7.114;2023-05-14T14:06:46;1.65;;;1.00;;
22531;SDS011;11432;46.924;7.114;2023-05-14T14:09:11;1.50;;;0.95;;
22531;SDS011;11432;46.924;7.114;2023-05-14T14:11:37;1.30;;;0.85;;
22531;SDS011;11432;46.924;7.114;2023-05-14T14:14:04;2.40;;;1.20;;
22531;SDS011;11432;46.924;7.114;2023-05-14T14:16:29;6.75;;;1.00;;
22531;SDS011;11432;46.924;7.114;2023-05-14T14:18:55;2.28;;;0.80;;
22531;SDS011;11432;46.924;7.114;2023-05-14T14:21:21;1.05;;;0.80;;
22531;SDS011;11432;46.924;7.114;2023-05-14T14:23:47;0.75;;;0.70;;
22531;SDS011;11432;46.924;7.114;2023-05-14T14:26:12;1.23;;;0.90;;
22531;SDS011;11432;46.924;7.114;2023-05-14T14:28:38;0.82;;;0.70;;
22531;SDS011;11432;46.924;7.114;2023-05-14T14:31:04;1.33;;;1.00;;
22531;SDS011;11432;46.924;7.114;2023-05-14T14:33:30;1.08;;;0.88;;
22531;SDS011;11432;46.924;7.114;2023-05-14T14:35:56;0.93;;;0.80;;
22531;SDS011;11432;46.924;7.114;2023-05-14T14:38:21;1.17;;;0.90;;
22531;SDS011;11432;46.924;7.114;2023-05-14T14:40:47;1.05;;;0.80;;
22531;SDS011;11432;46.924;7.114;2023-05-14T14:43:12;1.60;;;0.85;;
22531;SDS011;11432;46.924;7.114;2023-05-14T14:45:38;2.25;;;1.17;;
22531;SDS011;11432;46.924;7.114;2023-05-14T14:48:23;1.25;;;0.80;;
22531;SDS011;11432;46.924;7.114;2023-05-14T14:50:55;2.17;;;0.90;;
22531;SDS011;11432;46.924;7.114;2023-05-14T14:53:21;0.90;;;0.75;;
22531;SDS011;11432;46.924;7.114;2023-05-14T14:55:48;1.10;;;0.90;;
22531;SDS011;11432;46.924;7.114;2023-05-14T14:58:14;0.93;;;0.80;;